createdAt,value
2022-08-20T00:02:31.884Z,100021.82
2022-08-20T00:05:02.687Z,100018.52
2022-08-20T00:07:39.677Z,100025.58
2022-08-20T00:10:21.070Z,100037.81
2022-08-20T00:12:56.973Z,100055.77
2022-08-20T00:15:42.127Z,100068.47
2022-08-20T00:18:12.377Z,100070.84
2022-08-20T00:20:49.092Z,100067.27
2022-08-20T00:23:19.740Z,100062.16
2022-08-20T00:25:49.913Z,100061.91
2022-08-20T00:28:21.816Z,100064.81
2022-08-20T00:30:51.256Z,100054.19
2022-08-20T00:33:24.774Z,100044.95
2022-08-20T00:36:06.958Z,100037.40
2022-08-20T00:38:41.229Z,100034.91
2022-08-20T00:41:26.901Z,100042.42
2022-08-20T00:44:01.746Z,100038.49
2022-08-20T00:46:32.602Z,100033.07
2022-08-20T00:49:04.317Z,100033.08
2022-08-20T00:51:50.732Z,100042.46
2022-08-20T00:54:39.450Z,100040.11
2022-08-20T00:57:59.043Z,100031.48
2022-08-20T01:00:32.962Z,100026.55
2022-08-20T01:03:02.630Z,100028.10
2022-08-20T01:05:35.267Z,100025.64
2022-08-20T01:08:10.661Z,100022.56
2022-08-20T01:10:59.602Z,100026.39
2022-08-20T01:13:28.970Z,100019.65
2022-08-20T01:16:06.152Z,100020.98
2022-08-20T01:18:38.995Z,100019.80
2022-08-20T01:21:11.489Z,100027.66
2022-08-20T01:24:29.425Z,100031.73
2022-08-20T01:27:06.258Z,100031.23
2022-08-20T01:29:42.419Z,100034.20
2022-08-20T01:32:16.600Z,100027.24
2022-08-20T01:34:46.174Z,100019.83
2022-08-20T01:37:15.509Z,100017.48
2022-08-20T01:39:45.192Z,100014.14
2022-08-20T01:42:59.357Z,100012.33
2022-08-20T01:45:32.049Z,100016.92
2022-08-20T01:48:09.738Z,100021.13
2022-08-20T01:50:51.957Z,100029.17
2022-08-20T01:53:46.144Z,100026.23
2022-08-20T01:56:22.678Z,100024.52
2022-08-20T01:58:58.924Z,100021.63
2022-08-20T02:01:46.816Z,100021.94
2022-08-20T02:04:18.457Z,100021.90
2022-08-20T02:07:00.444Z,100021.13
2022-08-20T02:09:34.571Z,100021.24
2022-08-20T02:12:12.883Z,100014.73
2022-08-20T02:14:54.925Z,100011.11
2022-08-20T02:17:26.091Z,100006.12
2022-08-20T02:20:06.495Z,100007.45
2022-08-20T02:22:57.072Z,100004.86
2022-08-20T02:25:32.948Z,100003.05
2022-08-20T02:28:14.454Z,100002.64
2022-08-20T02:30:51.783Z,99993.28
2022-08-20T02:33:24.203Z,99990.06
2022-08-20T02:35:55.843Z,99995.07
2022-08-20T02:38:27.821Z,99995.98
2022-08-20T02:40:57.493Z,99996.74
2022-08-20T02:43:28.455Z,99994.38
2022-08-20T02:46:02.852Z,99995.47
2022-08-20T02:48:33.861Z,99989.63
2022-08-20T02:51:07.206Z,99981.44
2022-08-20T02:53:42.497Z,99980.02
2022-08-20T02:56:12.537Z,99982.85
2022-08-20T02:58:43.032Z,99980.71
2022-08-20T03:01:21.235Z,99977.33
2022-08-20T03:03:50.744Z,99969.66
2022-08-20T03:06:23.367Z,99961.98
2022-08-20T03:08:53.837Z,99958.84
2022-08-20T03:11:23.352Z,99960.43
2022-08-20T03:13:55.184Z,99962.09
2022-08-20T03:16:26.990Z,99951.29
2022-08-20T03:18:57.736Z,99939.23
2022-08-20T03:21:27.144Z,99945.27
2022-08-20T03:23:56.579Z,99953.87
2022-08-20T03:26:27.794Z,99962.02
2022-08-20T03:29:00.127Z,99967.80
2022-08-20T03:31:30.014Z,99973.52
2022-08-20T03:34:03.920Z,99971.83
2022-08-20T03:36:33.287Z,99965.20
2022-08-20T03:39:11.986Z,99965.52
2022-08-20T03:41:42.520Z,99964.99
2022-08-20T03:44:13.690Z,99964.31
2022-08-20T03:46:45.621Z,99966.27
2022-08-20T03:49:14.998Z,99968.83
2022-08-20T03:51:57.820Z,99969.31
2022-08-20T03:54:31.921Z,99967.00
2022-08-20T03:57:13.993Z,99962.33
2022-08-20T03:59:51.921Z,99967.89
2022-08-20T04:02:29.621Z,99969.61
2022-08-20T04:05:00.506Z,99973.09
2022-08-20T04:07:30.928Z,99976.95
2022-08-20T04:10:00.484Z,99978.06
2022-08-20T04:12:29.836Z,99972.33
2022-08-20T04:14:58.997Z,99971.17
2022-08-20T04:17:29.305Z,99968.13
2022-08-20T04:19:58.770Z,99968.57
2022-08-20T04:22:28.045Z,99973.11
2022-08-20T04:24:58.798Z,99973.11
2022-08-20T04:27:33.324Z,99972.02
2022-08-20T04:30:11.680Z,99974.57
2022-08-20T04:32:42.414Z,99971.76
2022-08-20T04:35:26.109Z,99969.45
2022-08-20T04:38:09.348Z,99963.75
2022-08-20T04:40:58.878Z,99961.79
2022-08-20T04:43:34.886Z,99964.39
2022-08-20T04:46:11.912Z,99965.77
2022-08-20T04:48:49.194Z,99964.84
2022-08-20T04:51:24.316Z,99964.34
2022-08-20T04:53:56.608Z,99964.12
2022-08-20T04:56:35.389Z,99969.27
2022-08-20T04:59:12.328Z,99969.48
2022-08-20T05:01:42.142Z,99972.90
2022-08-20T05:04:12.569Z,99974.89
2022-08-20T05:06:46.888Z,99977.50
2022-08-20T05:09:16.212Z,99974.73
2022-08-20T05:11:48.531Z,99978.11
2022-08-20T05:14:22.636Z,99973.18
2022-08-20T05:16:56.875Z,99978.42
2022-08-20T05:19:29.276Z,99983.10
2022-08-20T05:22:01.751Z,99983.39
2022-08-20T05:24:33.744Z,99985.30
2022-08-20T05:27:03.030Z,99990.69
2022-08-20T05:29:32.414Z,99990.98
2022-08-20T05:32:02.206Z,99996.56
2022-08-20T05:34:31.591Z,99995.26
2022-08-20T05:37:04.461Z,99995.89
2022-08-20T05:39:37.665Z,99991.60
2022-08-20T05:42:10.127Z,99985.70
2022-08-20T05:44:39.745Z,99992.35
2022-08-20T05:47:18.347Z,99992.70
2022-08-20T05:50:10.375Z,99994.83
2022-08-20T05:52:59.178Z,100002.40
2022-08-20T05:55:35.158Z,100007.18
2022-08-20T05:58:08.346Z,100008.11
2022-08-20T06:00:45.105Z,100006.28
2022-08-20T06:03:36.839Z,100002.66
2022-08-20T06:06:20.671Z,100001.91
2022-08-20T06:09:07.673Z,100000.27
2022-08-20T06:11:37.554Z,99996.88
2022-08-20T06:14:09.928Z,99998.02
2022-08-20T06:16:39.492Z,99995.86
2022-08-20T06:19:32.506Z,99991.05
2022-08-20T06:22:18.422Z,99987.77
2022-08-20T06:24:57.094Z,99989.56
2022-08-20T06:27:28.527Z,99988.37
2022-08-20T06:30:00.531Z,99994.10
2022-08-20T06:32:35.749Z,99990.34
2022-08-20T06:35:10.237Z,99979.11
2022-08-20T06:37:40.823Z,99969.98
2022-08-20T06:40:12.292Z,99969.46
2022-08-20T06:42:49.043Z,99971.21
2022-08-20T06:45:29.635Z,99975.97
2022-08-20T06:48:05.550Z,99977.21
2022-08-20T06:50:47.467Z,99976.77
2022-08-20T06:53:23.120Z,99975.06
2022-08-20T06:56:02.462Z,99978.31
2022-08-20T06:58:38.644Z,99978.97
2022-08-20T07:01:13.918Z,99975.27
2022-08-20T07:03:55.331Z,99973.00
2022-08-20T07:06:27.088Z,99971.45
2022-08-20T07:08:58.765Z,99973.20
2022-08-20T07:11:28.945Z,99975.23
2022-08-20T07:13:58.973Z,99980.48
2022-08-20T07:16:36.749Z,99986.69
2022-08-20T07:19:06.677Z,99992.95
2022-08-20T07:21:39.038Z,100000.52
2022-08-20T07:24:12.755Z,100005.09
2022-08-20T07:26:42.545Z,100012.52
2022-08-20T07:29:11.924Z,100019.44
2022-08-20T07:31:59.943Z,100026.91
2022-08-20T07:34:36.174Z,100031.19
2022-08-20T07:37:06.783Z,100040.70
2022-08-20T07:39:36.500Z,100042.26
2022-08-20T07:42:07.451Z,100040.30
2022-08-20T07:44:39.138Z,100039.81
2022-08-20T07:47:13.417Z,100039.02
2022-08-20T07:49:42.601Z,100041.01
2022-08-20T07:52:13.780Z,100042.96
2022-08-20T07:54:45.175Z,100046.86
2022-08-20T07:57:17.522Z,100042.77
2022-08-20T07:59:54.302Z,100042.89
2022-08-20T08:02:29.390Z,100037.79
2022-08-20T08:04:59.551Z,100040.91
2022-08-20T08:07:32.897Z,100042.39
2022-08-20T08:10:07.281Z,100039.17
2022-08-20T08:12:45.541Z,100036.98
2022-08-20T08:15:22.713Z,100034.17
2022-08-20T08:17:56.671Z,100036.36
2022-08-20T08:20:26.298Z,100049.98
2022-08-20T08:22:56.061Z,100055.39
2022-08-20T08:25:28.400Z,100054.27
2022-08-20T08:28:01.294Z,100056.52
2022-08-20T08:30:34.255Z,100058.06
2022-08-20T08:33:22.029Z,100057.08
2022-08-20T08:35:51.669Z,100058.84
2022-08-20T08:38:23.529Z,100055.06
2022-08-20T08:40:59.757Z,100054.85
2022-08-20T08:43:31.818Z,100061.30
2022-08-20T08:46:06.475Z,100061.23
2022-08-20T08:48:45.802Z,100062.36
2022-08-20T08:51:28.776Z,100062.65
2022-08-20T08:54:05.957Z,100063.17
2022-08-20T08:56:36.650Z,100063.21
2022-08-20T08:59:13.917Z,100064.69
2022-08-20T09:01:56.895Z,100065.59
2022-08-20T09:04:37.913Z,100068.27
2022-08-20T09:07:15.114Z,100072.95
2022-08-20T09:09:47.198Z,100074.30
2022-08-20T09:12:20.535Z,100068.05
2022-08-20T09:14:51.693Z,100070.25
2022-08-20T09:17:24.911Z,100074.86
2022-08-20T09:19:57.247Z,100069.91
2022-08-20T09:22:26.485Z,100064.19
2022-08-20T09:24:58.471Z,100062.45
2022-08-20T09:27:27.829Z,100060.34
2022-08-20T09:29:57.276Z,100048.29
2022-08-20T09:32:26.460Z,100045.09
2022-08-20T09:34:56.921Z,100044.65
2022-08-20T09:37:33.660Z,100043.16
2022-08-20T09:40:07.885Z,100042.58
2022-08-20T09:42:41.591Z,100041.40
2022-08-20T09:45:13.270Z,100045.16
2022-08-20T09:47:56.608Z,100043.25
2022-08-20T09:50:30.897Z,100042.39
2022-08-20T09:53:02.319Z,100036.60
2022-08-20T09:55:38.217Z,100029.45
2022-08-20T09:58:41.661Z,100030.39
2022-08-20T10:01:18.655Z,100030.95
2022-08-20T10:03:49.833Z,100031.05
2022-08-20T10:06:20.739Z,100035.83
2022-08-20T10:08:50.769Z,100039.80
2022-08-20T10:11:19.782Z,100036.55
2022-08-20T10:13:49.828Z,100035.30
2022-08-20T10:16:18.896Z,100036.63
2022-08-20T10:18:49.561Z,100037.84
2022-08-20T10:21:18.801Z,100042.19
2022-08-20T10:23:48.114Z,100040.52
2022-08-20T10:26:19.504Z,100039.15
2022-08-20T10:28:48.514Z,100039.69
2022-08-20T10:31:17.694Z,100039.34
2022-08-20T10:33:49.512Z,100042.66
2022-08-20T10:36:18.865Z,100041.86
2022-08-20T10:38:49.220Z,100042.02
2022-08-20T10:41:18.359Z,100040.08
2022-08-20T10:43:47.536Z,100045.46
2022-08-20T10:46:20.393Z,100050.02
2022-08-20T10:48:49.605Z,100047.69
2022-08-20T10:51:18.669Z,100052.36
2022-08-20T10:53:48.306Z,100054.01
2022-08-20T10:56:17.605Z,100059.86
2022-08-20T10:58:46.653Z,100059.75
2022-08-20T11:01:32.903Z,100058.54
2022-08-20T11:04:03.534Z,100055.30
2022-08-20T11:06:32.845Z,100059.38
2022-08-20T11:09:05.450Z,100062.14
2022-08-20T11:11:38.614Z,100063.17
2022-08-20T11:14:07.882Z,100055.33
2022-08-20T11:16:37.295Z,100052.42
2022-08-20T11:19:08.784Z,100053.77
2022-08-20T11:21:42.017Z,100057.16
2022-08-20T11:24:13.671Z,100054.33
2022-08-20T11:26:45.254Z,100054.63
2022-08-20T11:29:17.642Z,100049.02
2022-08-20T11:31:46.710Z,100046.29
2022-08-20T11:34:15.648Z,100039.88
2022-08-20T11:36:50.015Z,100037.89
2022-08-20T11:39:25.311Z,100032.73
2022-08-20T11:41:55.346Z,100031.73
2022-08-20T11:44:25.100Z,100032.17
2022-08-20T11:46:54.539Z,100036.26
2022-08-20T11:49:26.111Z,100034.66
2022-08-20T11:51:58.039Z,100027.79
2022-08-20T11:54:32.008Z,100031.42
2022-08-20T11:57:08.985Z,100032.75
2022-08-20T11:59:40.508Z,100031.02
2022-08-20T12:02:12.481Z,100028.05
2022-08-20T12:04:42.095Z,100023.27
2022-08-20T12:07:14.994Z,100023.58
2022-08-20T12:09:50.281Z,100024.05
2022-08-20T12:12:24.222Z,100022.44
2022-08-20T12:14:56.554Z,100014.73
2022-08-20T12:17:30.405Z,100012.48
2022-08-20T12:20:04.105Z,100008.45
2022-08-20T12:22:33.417Z,100006.46
2022-08-20T12:25:02.615Z,100004.52
2022-08-20T12:27:37.440Z,100002.94
2022-08-20T12:30:21.690Z,100010.48
2022-08-20T12:32:51.029Z,100007.49
2022-08-20T12:35:21.282Z,100003.36
2022-08-20T12:37:51.245Z,100008.35
2022-08-20T12:40:31.829Z,100009.95
2022-08-20T12:43:03.996Z,100008.83
2022-08-20T12:45:34.013Z,100010.89
2022-08-20T12:48:11.105Z,100006.25
2022-08-20T12:50:45.952Z,100002.98
2022-08-20T12:53:15.170Z,99997.91
2022-08-20T12:55:44.473Z,100002.98
2022-08-20T12:58:16.398Z,100008.79
2022-08-20T13:00:51.027Z,100008.66
2022-08-20T13:03:22.071Z,100002.54
2022-08-20T13:05:51.241Z,99995.06
2022-08-20T13:08:20.402Z,99994.20
2022-08-20T13:10:49.384Z,99989.66
2022-08-20T13:13:20.867Z,99982.67
2022-08-20T13:15:52.512Z,99980.97
2022-08-20T13:18:21.899Z,99978.13
2022-08-20T13:20:50.972Z,99974.12
2022-08-20T13:23:20.175Z,99966.63
2022-08-20T13:25:53.360Z,99963.53
2022-08-20T13:28:27.854Z,99960.08
2022-08-20T13:31:33.092Z,99966.21
2022-08-20T13:34:06.277Z,99970.56
2022-08-20T13:36:36.369Z,99971.41
2022-08-20T13:39:13.083Z,99977.65
2022-08-20T13:41:44.539Z,99980.58
2022-08-20T13:44:13.769Z,99981.96
2022-08-20T13:46:42.847Z,99978.84
2022-08-20T13:49:16.685Z,99975.10
2022-08-20T13:51:52.236Z,99975.96
2022-08-20T13:54:21.805Z,99978.02
2022-08-20T13:56:50.954Z,99978.77
2022-08-20T13:59:21.318Z,99978.83
2022-08-20T14:01:50.363Z,99981.66
2022-08-20T14:04:22.883Z,99976.70
2022-08-20T14:06:55.040Z,99972.86
2022-08-20T14:09:24.071Z,99970.84
2022-08-20T14:11:53.063Z,99971.75
2022-08-20T14:14:22.110Z,99973.84
2022-08-20T14:16:51.115Z,99975.41
2022-08-20T14:19:20.210Z,99976.22
2022-08-20T14:21:49.229Z,99976.56
2022-08-20T14:24:18.232Z,99975.16
2022-08-20T14:26:47.293Z,99980.65
2022-08-20T14:29:19.941Z,99983.86
2022-08-20T14:31:48.959Z,99981.92
2022-08-20T14:34:20.034Z,99980.20
2022-08-20T14:36:48.967Z,99977.04
2022-08-20T14:39:20.497Z,99976.88
2022-08-20T14:41:49.715Z,99975.25
2022-08-20T14:44:18.874Z,99974.89
2022-08-20T14:46:47.784Z,99975.98
2022-08-20T14:49:16.855Z,99969.95
2022-08-20T14:51:45.752Z,99965.05
2022-08-20T14:54:14.847Z,99967.30
2022-08-20T14:56:43.890Z,99968.31
2022-08-20T14:59:12.756Z,99968.58
2022-08-20T15:01:41.701Z,99962.52
2022-08-20T15:04:10.573Z,99957.88
2022-08-20T15:06:39.597Z,99960.05
2022-08-20T15:09:08.825Z,99958.88
2022-08-20T15:11:40.155Z,99962.29
2022-08-20T15:14:09.099Z,99963.05
2022-08-20T15:16:39.495Z,99968.26
2022-08-20T15:19:08.757Z,99968.46
2022-08-20T15:21:45.471Z,99976.79
2022-08-20T15:24:19.416Z,99981.70
2022-08-20T15:26:48.969Z,99983.84
2022-08-20T15:29:23.267Z,99984.02
2022-08-20T15:31:54.239Z,99981.64
2022-08-20T15:34:23.316Z,99981.25
2022-08-20T15:36:52.282Z,99985.93
2022-08-20T15:39:25.914Z,99988.77
2022-08-20T15:41:55.531Z,99993.33
2022-08-20T15:44:24.803Z,99986.40
2022-08-20T15:46:53.952Z,99986.34
2022-08-20T15:49:24.661Z,99986.72
2022-08-20T15:51:58.368Z,99991.17
2022-08-20T15:54:32.463Z,99987.80
2022-08-20T15:57:33.788Z,99985.38
2022-08-20T16:00:14.487Z,99972.91
2022-08-20T16:03:08.451Z,99971.20
2022-08-20T16:06:03.476Z,99974.38
2022-08-20T16:09:03.929Z,99984.50
2022-08-20T16:11:42.907Z,99985.73
2022-08-20T16:14:25.397Z,99988.19
2022-08-20T16:17:05.834Z,99985.64
2022-08-20T16:20:07.611Z,99987.93
2022-08-20T16:22:46.230Z,99989.92
2022-08-20T16:25:17.364Z,99985.13
2022-08-20T16:28:23.294Z,99976.94
2022-08-20T16:31:05.727Z,99971.88
2022-08-20T16:34:33.173Z,99965.71
2022-08-20T16:37:11.007Z,99968.48
2022-08-20T16:39:55.484Z,99971.60
2022-08-20T16:42:30.206Z,99973.98
2022-08-20T16:45:00.658Z,99974.70
2022-08-20T16:47:35.990Z,99973.27
2022-08-20T16:50:23.751Z,99973.92
2022-08-20T16:52:53.383Z,99974.25
2022-08-20T16:55:24.689Z,99975.54
2022-08-20T16:57:54.192Z,99975.41
2022-08-20T17:00:39.055Z,99978.16
2022-08-20T17:03:33.312Z,99973.94
2022-08-20T17:06:46.845Z,99970.91
2022-08-20T17:09:34.087Z,99964.56
2022-08-20T17:12:27.839Z,99968.99
2022-08-20T17:14:59.160Z,99975.98
2022-08-20T17:17:37.509Z,99979.30
2022-08-20T17:20:20.203Z,99985.48
2022-08-20T17:23:09.671Z,99993.88
2022-08-20T17:25:38.781Z,100006.89
2022-08-20T17:28:20.346Z,100014.70
2022-08-20T17:30:50.645Z,100018.39
2022-08-20T17:33:21.141Z,100021.26
2022-08-20T17:36:08.727Z,100023.55
2022-08-20T17:38:48.888Z,100029.66
2022-08-20T17:41:26.956Z,100029.92
2022-08-20T17:44:20.269Z,100030.91
2022-08-20T17:46:51.903Z,100027.38
2022-08-20T17:49:42.332Z,100032.41
2022-08-20T17:52:27.259Z,100037.30
2022-08-20T17:54:57.141Z,100041.10
2022-08-20T17:57:33.409Z,100047.60
2022-08-20T18:00:08.669Z,100050.85
2022-08-20T18:02:38.916Z,100052.64
2022-08-20T18:05:21.222Z,100054.85
2022-08-20T18:08:25.763Z,100052.71
2022-08-20T18:11:09.177Z,100055.54
2022-08-20T18:14:05.589Z,100062.89
2022-08-20T18:17:09.117Z,100077.85
2022-08-20T18:20:15.005Z,100079.69
2022-08-20T18:23:11.734Z,100080.05
2022-08-20T18:26:13.527Z,100081.98
2022-08-20T18:29:16.388Z,100083.44
2022-08-20T18:31:55.201Z,100089.35
2022-08-20T18:34:29.904Z,100086.63
2022-08-20T18:37:05.775Z,100085.94
2022-08-20T18:39:42.234Z,100086.29
2022-08-20T18:42:36.177Z,100085.45
2022-08-20T18:45:09.600Z,100089.02
2022-08-20T18:47:41.318Z,100086.63
2022-08-20T18:50:16.417Z,100084.13
2022-08-20T18:53:17.078Z,100078.91
2022-08-20T18:56:06.033Z,100076.24
2022-08-20T18:59:20.063Z,100074.92
2022-08-20T19:01:50.006Z,100075.26
2022-08-20T19:04:34.715Z,100068.71
2022-08-20T19:07:06.665Z,100073.10
2022-08-20T19:09:44.507Z,100076.70
2022-08-20T19:13:03.809Z,100081.16
2022-08-20T19:15:38.498Z,100085.31
2022-08-20T19:18:16.611Z,100084.87
2022-08-20T19:20:59.590Z,100087.70
2022-08-20T19:23:33.452Z,100086.56
2022-08-20T19:26:25.035Z,100081.97
2022-08-20T19:29:11.361Z,100081.95
2022-08-20T19:31:41.885Z,100082.30
2022-08-20T19:34:22.160Z,100083.58
2022-08-20T19:37:27.624Z,100086.73
2022-08-20T19:39:56.606Z,100087.04
2022-08-20T19:42:33.530Z,100085.15
2022-08-20T19:45:06.040Z,100080.70
2022-08-20T19:47:46.378Z,100080.14
2022-08-20T19:50:56.821Z,100075.83
2022-08-20T19:53:32.922Z,100072.05
2022-08-20T19:56:12.205Z,100063.66
2022-08-20T19:58:42.117Z,100061.59
2022-08-20T20:01:23.416Z,100062.89
2022-08-20T20:04:06.358Z,100056.73
2022-08-20T20:06:43.623Z,100051.45
2022-08-20T20:09:23.726Z,100051.77
2022-08-20T20:12:03.206Z,100055.83
2022-08-20T20:14:37.543Z,100060.02
2022-08-20T20:17:09.275Z,100055.92
2022-08-20T20:19:49.836Z,100058.17
2022-08-20T20:22:36.079Z,100050.77
2022-08-20T20:25:21.007Z,100045.12
2022-08-20T20:27:57.008Z,100043.90
2022-08-20T20:30:37.376Z,100045.34
2022-08-20T20:33:32.548Z,100048.13
2022-08-20T20:36:18.500Z,100047.66
2022-08-20T20:39:04.752Z,100044.82
2022-08-20T20:41:38.097Z,100047.27
2022-08-20T20:44:22.969Z,100049.27
2022-08-20T20:47:05.075Z,100050.44
2022-08-20T20:50:05.779Z,100049.45
2022-08-20T20:52:48.640Z,100051.00
2022-08-20T20:55:17.722Z,100052.52
2022-08-20T20:57:47.275Z,100051.03
2022-08-20T21:00:19.141Z,100052.88
2022-08-20T21:02:48.565Z,100051.54
2022-08-20T21:05:25.964Z,100044.92
2022-08-20T21:08:02.535Z,100039.21
2022-08-20T21:10:36.646Z,100036.30
2022-08-20T21:13:08.614Z,100035.13
2022-08-20T21:15:39.994Z,100036.99
2022-08-20T21:18:09.542Z,100034.64
2022-08-20T21:20:38.715Z,100034.08
2022-08-20T21:23:08.218Z,100040.05
2022-08-20T21:25:37.662Z,100043.95
2022-08-20T21:28:08.191Z,100048.80
2022-08-20T21:30:37.486Z,100054.98
2022-08-20T21:33:06.785Z,100060.75
2022-08-20T21:35:36.105Z,100060.73
2022-08-20T21:38:05.403Z,100064.61
2022-08-20T21:40:35.173Z,100060.73
2022-08-20T21:43:07.485Z,100055.48
2022-08-20T21:45:40.339Z,100058.39
2022-08-20T21:48:12.657Z,100055.66
2022-08-20T21:50:42.423Z,100051.38
2022-08-20T21:53:12.784Z,100049.88
2022-08-20T21:55:42.234Z,100048.36
2022-08-20T21:58:12.397Z,100047.72
2022-08-20T22:00:57.458Z,100044.85
2022-08-20T22:03:38.872Z,100043.73
2022-08-20T22:06:13.653Z,100039.80
2022-08-20T22:08:42.832Z,100035.28
2022-08-20T22:11:13.716Z,100035.95
2022-08-20T22:13:44.854Z,100033.66
2022-08-20T22:16:18.946Z,100039.66
2022-08-20T22:18:50.372Z,100041.27
2022-08-20T22:21:31.397Z,100046.67
2022-08-20T22:24:05.382Z,100047.55
2022-08-20T22:26:38.150Z,100046.95
2022-08-20T22:29:11.277Z,100050.89
2022-08-20T22:31:43.735Z,100055.52
2022-08-20T22:34:20.135Z,100060.33
2022-08-20T22:36:59.685Z,100064.79
2022-08-20T22:39:28.947Z,100062.20
2022-08-20T22:42:01.461Z,100063.98
2022-08-20T22:44:30.815Z,100066.02
2022-08-20T22:47:05.989Z,100063.73
2022-08-20T22:49:44.573Z,100067.56
2022-08-20T22:52:16.358Z,100067.89
2022-08-20T22:54:46.078Z,100065.48
2022-08-20T22:57:15.774Z,100066.55
2022-08-20T22:59:53.220Z,100064.98
2022-08-20T23:02:24.354Z,100062.64
2022-08-20T23:04:53.950Z,100064.16
2022-08-20T23:07:26.066Z,100064.90
2022-08-20T23:09:55.573Z,100060.02
2022-08-20T23:12:24.989Z,100059.30
2022-08-20T23:14:55.235Z,100065.26
2022-08-20T23:17:24.743Z,100067.95
2022-08-20T23:19:54.654Z,100078.46
2022-08-20T23:22:24.820Z,100092.77
2022-08-20T23:24:57.347Z,100107.89
2022-08-20T23:27:29.824Z,100118.61
2022-08-20T23:30:00.032Z,100126.70
2022-08-20T23:32:30.160Z,100128.20
2022-08-20T23:35:00.249Z,100115.48
2022-08-20T23:37:29.661Z,100096.59
2022-08-20T23:39:58.761Z,100081.70
2022-08-20T23:42:31.426Z,100076.09
2022-08-20T23:45:05.711Z,100083.91
2022-08-20T23:47:36.560Z,100084.63
2022-08-20T23:50:11.697Z,100075.52
2022-08-20T23:52:41.674Z,100071.10
2022-08-20T23:55:12.293Z,100064.50
2022-08-20T23:57:44.773Z,100058.48
